Time;durP1;ratioP1;P1;durP2;ratioP2;P2;SDS_P1;SDS_P2;PMS_P1;PMS_P2;Temp;Humidity;BMP_temperature;BMP_pressure;BME280_temperature;BME280_humidity;BME280_pressure;Samples;Min_cycle;Max_cycle;Signal;HPM_P1;HPM_P2
2022/08/08 00:00:02;;;;;;;1.47;1.13;;;24.40;29.90;;;;;;5093392;28;20450;-86
2022/08/08 00:02:47;;;;;;;1.33;1.23;;;24.40;29.90;;;;;;5075713;28;20967;-86
2022/08/08 00:05:21;;;;;;;1.80;1.30;;;24.40;29.80;;;;;;5090003;28;20438;-86
2022/08/08 00:07:56;;;;;;;1.87;1.20;;;24.40;29.80;;;;;;5081536;28;20493;-87
2022/08/08 00:10:31;;;;;;;1.30;1.20;;;24.40;29.70;;;;;;5073535;28;20450;-86
2022/08/08 00:13:08;;;;;;;1.80;1.20;;;24.40;29.90;;;;;;5089215;28;20451;-86
2022/08/08 00:15:39;;;;;;;1.27;1.13;;;24.40;30.50;;;;;;5082997;28;20449;-85
2022/08/08 00:18:36;;;;;;;1.27;1.17;;;24.30;31.60;;;;;;5076124;28;20486;-87
2022/08/08 00:21:05;;;;;;;4.40;1.30;;;24.30;31.60;;;;;;5059105;28;20567;-86
2022/08/08 00:23:40;;;;;;;1.10;1.00;;;24.20;31.80;;;;;;5092953;28;20446;-87
2022/08/08 00:26:38;;;;;;;1.30;1.20;;;24.20;31.50;;;;;;5072570;28;20447;-87
2022/08/08 00:29:12;;;;;;;1.57;1.47;;;24.10;31.40;;;;;;5058096;28;20444;-86
2022/08/08 00:31:43;;;;;;;1.87;1.20;;;24.00;31.40;;;;;;5075460;28;20458;-87
2022/08/08 00:37:37;;;;;;;1.20;1.10;;;23.90;31.60;;;;;;5073598;28;20479;-87
2022/08/08 00:40:46;;;;;;;1.30;1.20;;;23.90;31.90;;;;;;5056449;28;20442;-86
2022/08/08 00:43:49;;;;;;;1.30;1.20;;;23.70;31.40;;;;;;5070679;28;20477;-87
2022/08/08 00:46:42;;;;;;;5.07;1.10;;;23.60;31.90;;;;;;5055725;28;20457;-88
2022/08/08 00:49:34;;;;;;;1.97;1.20;;;23.60;31.40;;;;;;5035325;28;20459;-85
2022/08/08 00:52:34;;;;;;;1.30;1.20;;;23.50;31.60;;;;;;5050491;28;20443;-86
2022/08/08 00:55:16;;;;;;;1.87;1.20;;;23.50;32.10;;;;;;5058030;28;21128;-86
2022/08/08 00:58:25;;;;;;;1.43;1.20;;;23.50;32.10;;;;;;5075681;28;21278;-86
2022/08/08 01:01:08;;;;;;;2.47;1.20;;;23.50;32.50;;;;;;5043350;28;20578;-87
2022/08/08 01:11:25;;;;;;;1.23;1.13;;;23.50;32.70;;;;;;5092348;28;20444;-86
2022/08/08 01:14:28;;;;;;;1.50;1.30;;;23.40;32.20;;;;;;5066570;28;20958;-86
2022/08/08 01:17:30;;;;;;;1.60;1.20;;;23.40;32.50;;;;;;5076838;28;21006;-86
2022/08/08 01:20:33;;;;;;;1.40;1.30;;;23.30;32.50;;;;;;5095058;28;21234;-86
2022/08/08 01:23:25;;;;;;;1.33;1.23;;;23.20;32.80;;;;;;5065493;28;20450;-86
2022/08/08 01:26:25;;;;;;;1.20;1.10;;;23.20;33.80;;;;;;5063992;28;20454;-84
2022/08/08 01:29:18;;;;;;;1.40;1.27;;;23.20;34.10;;;;;;5054109;28;20540;-84
2022/08/08 01:32:17;;;;;;;2.50;1.20;;;23.10;32.40;;;;;;5071257;28;20531;-86
2022/08/08 01:35:28;;;;;;;1.60;1.17;;;22.90;32.30;;;;;;5068989;28;20891;-85
2022/08/08 01:38:18;;;;;;;1.30;1.17;;;22.80;31.90;;;;;;5018662;28;20475;-86
2022/08/08 01:41:01;;;;;;;2.33;1.20;;;22.70;33.20;;;;;;5077583;28;21025;-86
2022/08/08 01:43:40;;;;;;;1.40;1.30;;;22.80;33.70;;;;;;5061218;28;20454;-84
2022/08/08 01:46:29;;;;;;;1.40;1.30;;;22.80;34.30;;;;;;5048236;28;20442;-86
2022/08/08 01:49:09;;;;;;;1.63;1.53;;;22.80;35.10;;;;;;5094345;28;21233;-86
2022/08/08 01:51:53;;;;;;;1.40;1.30;;;22.80;35.80;;;;;;5064271;28;20525;-85
2022/08/08 01:54:31;;;;;;;1.60;1.50;;;22.80;35.60;;;;;;5065862;28;20458;-86
2022/08/08 01:57:09;;;;;;;3.80;1.30;;;22.80;35.40;;;;;;5080330;28;20574;-85
2022/08/08 01:59:55;;;;;;;1.43;1.33;;;22.80;35.70;;;;;;5067915;28;20900;-86
2022/08/08 02:02:36;;;;;;;2.60;1.30;;;22.70;35.30;;;;;;5091464;28;21071;-85
2022/08/08 02:05:14;;;;;;;2.30;1.47;;;22.70;36.20;;;;;;5085808;28;20957;-86
2022/08/08 02:08:00;;;;;;;1.60;1.50;;;22.70;36.80;;;;;;5045129;28;20467;-86
2022/08/08 02:10:43;;;;;;;1.43;1.30;;;22.70;37.60;;;;;;5076476;28;20948;-86
2022/08/08 02:13:15;;;;;;;1.43;1.33;;;22.60;37.60;;;;;;5086651;28;21105;-87
2022/08/08 02:15:47;;;;;;;1.60;1.50;;;22.60;36.80;;;;;;5084497;28;20451;-86
2022/08/08 02:18:23;;;;;;;1.87;1.30;;;22.50;36.10;;;;;;5042378;28;20467;-86
2022/08/08 02:23:48;;;;;;;1.50;1.40;;;22.50;37.00;;;;;;5061784;28;20446;-86
2022/08/08 02:26:21;;;;;;;1.70;1.60;;;22.50;38.30;;;;;;5062057;28;20457;-87
2022/08/08 02:29:12;;;;;;;1.87;1.60;;;22.40;38.90;;;;;;5084588;28;20557;-88
2022/08/08 02:31:52;;;;;;;1.30;1.20;;;22.30;38.40;;;;;;5062007;28;21384;-86
2022/08/08 02:34:32;;;;;;;1.30;1.20;;;22.30;37.60;;;;;;5067208;28;20534;-87
2022/08/08 02:37:08;;;;;;;1.37;1.27;;;22.30;36.80;;;;;;5073177;28;20962;-84
2022/08/08 02:39:57;;;;;;;1.37;1.27;;;22.20;36.10;;;;;;5060702;28;20884;-86
2022/08/08 02:43:11;;;;;;;1.50;1.40;;;22.20;36.50;;;;;;5075097;28;20562;-86
2022/08/08 02:46:02;;;;;;;1.50;1.40;;;22.10;37.90;;;;;;5044725;28;20458;-86
2022/08/08 02:49:03;;;;;;;3.90;1.30;;;22.10;38.30;;;;;;5062538;28;20479;-85
2022/08/08 02:51:55;;;;;;;1.83;1.53;;;22.10;38.00;;;;;;5022436;28;20483;-86
2022/08/08 02:55:02;;;;;;;1.53;1.43;;;22.00;38.30;;;;;;5046989;28;20435;-87
2022/08/08 02:58:00;;;;;;;2.60;1.37;;;22.00;39.40;;;;;;5083841;28;20482;-86
2022/08/08 03:00:52;;;;;;;2.23;1.70;;;22.00;39.00;;;;;;5074727;28;20454;-86
2022/08/08 03:04:06;;;;;;;1.63;1.53;;;21.90;38.80;;;;;;5059137;28;20451;-88
2022/08/08 03:07:00;;;;;;;1.80;1.70;;;21.90;39.00;;;;;;5051594;28;20856;-85
2022/08/08 03:10:20;;;;;;;1.63;1.53;;;21.90;39.90;;;;;;5054918;28;20967;-86
2022/08/08 03:13:08;;;;;;;3.13;1.73;;;21.80;40.00;;;;;;4971763;28;20458;-85
2022/08/08 03:16:17;;;;;;;4.67;1.70;;;21.80;39.80;;;;;;5009566;28;20448;-86
2022/08/08 03:18:50;;;;;;;4.33;1.70;;;21.70;39.60;;;;;;5055725;28;20488;-87
2022/08/08 03:21:16;;;;;;;4.23;2.17;;;21.70;40.20;;;;;;5083227;28;20538;-86
2022/08/08 03:23:46;;;;;;;1.83;1.70;;;21.70;40.90;;;;;;5061010;28;20988;-87
2022/08/08 03:26:19;;;;;;;3.97;2.20;;;21.60;41.00;;;;;;5068933;28;20473;-85
2022/08/08 03:28:53;;;;;;;2.33;1.90;;;21.60;41.30;;;;;;5054995;28;20492;-87
2022/08/08 03:34:33;;;;;;;2.37;1.93;;;21.60;42.40;;;;;;5080011;28;20552;-87
2022/08/08 03:37:00;;;;;;;1.80;1.70;;;21.50;42.10;;;;;;5078894;28;20857;-85
2022/08/08 03:39:29;;;;;;;1.77;1.67;;;21.40;41.80;;;;;;5059597;28;20458;-87
2022/08/08 03:41:56;;;;;;;2.43;1.97;;;21.40;41.00;;;;;;5042849;28;20481;-86
2022/08/08 03:44:32;;;;;;;2.00;1.90;;;21.40;40.40;;;;;;5062319;28;21348;-87
2022/08/08 03:47:02;;;;;;;1.90;1.70;;;21.40;40.90;;;;;;5063433;28;20478;-87
2022/08/08 03:49:29;;;;;;;1.90;1.80;;;21.30;41.70;;;;;;5039999;28;20458;-87
2022/08/08 03:51:56;;;;;;;2.23;1.77;;;21.30;42.40;;;;;;5045363;28;20452;-86
2022/08/08 03:54:29;;;;;;;1.90;1.80;;;21.30;42.50;;;;;;5066510;28;20982;-86
2022/08/08 03:56:56;;;;;;;2.07;1.87;;;21.30;42.80;;;;;;5050814;28;20895;-87
2022/08/08 04:00:15;;;;;;;1.70;1.60;;;21.30;43.00;;;;;;5070395;28;21214;-87
2022/08/08 04:03:39;;;;;;;1.83;1.73;;;21.30;42.80;;;;;;5063499;28;20475;-87
2022/08/08 04:10:51;;;;;;;2.00;1.80;;;21.20;43.10;;;;;;5087949;28;20492;-86
2022/08/08 04:17:01;;;;;;;4.17;1.50;;;21.10;42.40;;;;;;5063193;28;20494;-87
2022/08/08 04:22:44;;;;;;;1.63;1.50;;;21.00;42.00;;;;;;5069622;28;20474;-87
2022/08/08 04:25:12;;;;;;;1.53;1.43;;;21.00;41.00;;;;;;5056704;28;22193;-87
2022/08/08 04:27:40;;;;;;;3.87;1.63;;;21.00;40.70;;;;;;5071256;28;20558;-87
2022/08/08 04:30:38;;;;;;;2.27;1.80;;;21.00;40.40;;;;;;5087353;28;20448;-87
2022/08/08 04:36:47;;;;;;;3.23;1.80;;;21.00;41.00;;;;;;5045521;28;20428;-87
2022/08/08 04:39:14;;;;;;;1.63;1.50;;;20.90;42.20;;;;;;5049419;28;20478;-88
2022/08/08 04:44:59;;;;;;;3.73;2.33;;;21.00;42.30;;;;;;5085964;28;20449;-87
2022/08/08 04:47:26;;;;;;;2.07;1.80;;;20.90;43.40;;;;;;5079323;28;20469;-88
2022/08/08 04:49:53;;;;;;;2.43;2.07;;;21.00;43.40;;;;;;5063011;28;20455;-88
2022/08/08 04:52:21;;;;;;;4.10;1.90;;;21.00;43.60;;;;;;5043594;28;20451;-87
2022/08/08 04:54:49;;;;;;;1.70;1.60;;;21.00;43.80;;;;;;5068754;28;20684;-87
2022/08/08 04:57:16;;;;;;;1.83;1.73;;;21.00;44.10;;;;;;5067928;28;20474;-87
2022/08/08 04:59:43;;;;;;;4.07;1.73;;;21.00;43.90;;;;;;5059491;28;20441;-88
2022/08/08 05:02:16;;;;;;;1.93;1.83;;;21.00;43.80;;;;;;5059484;28;20523;-87
2022/08/08 05:04:44;;;;;;;1.70;1.60;;;21.00;43.80;;;;;;5072408;28;20492;-87
2022/08/08 05:07:11;;;;;;;2.67;2.20;;;21.00;43.60;;;;;;5077603;28;20500;-87
2022/08/08 05:09:38;;;;;;;2.77;2.10;;;21.00;43.70;;;;;;5055340;28;20877;-87
2022/08/08 05:12:31;;;;;;;2.07;1.90;;;21.00;43.50;;;;;;5073561;28;20446;-83
2022/08/08 05:14:58;;;;;;;1.93;1.47;;;21.00;43.90;;;;;;5077147;28;20516;-85
2022/08/08 05:18:17;;;;;;;1.93;1.80;;;21.00;44.20;;;;;;5044796;28;20570;-87
2022/08/08 05:20:47;;;;;;;2.67;2.03;;;21.00;44.50;;;;;;5076435;28;21027;-86
2022/08/08 05:23:14;;;;;;;3.83;1.70;;;21.00;45.10;;;;;;5059470;28;20471;-86
2022/08/08 05:26:32;;;;;;;1.90;1.80;;;21.00;45.30;;;;;;5068652;28;21197;-85
2022/08/08 05:29:01;;;;;;;1.90;1.80;;;21.00;45.20;;;;;;5087898;28;20443;-85
2022/08/08 05:41:04;;;;;;;2.20;2.10;;;21.10;44.90;;;;;;5061259;28;21169;-85
2022/08/08 05:44:24;;;;;;;4.73;1.70;;;21.10;45.00;;;;;;5069835;28;20497;-85
2022/08/08 05:46:53;;;;;;;2.23;2.03;;;21.10;44.90;;;;;;5051255;28;20459;-86
2022/08/08 05:49:20;;;;;;;1.90;1.80;;;21.10;45.20;;;;;;5055839;28;20542;-86
2022/08/08 05:51:48;;;;;;;2.07;1.90;;;21.20;45.20;;;;;;5043345;28;20447;-86
2022/08/08 05:54:18;;;;;;;1.80;1.60;;;21.20;45.30;;;;;;5051141;28;20526;-86
2022/08/08 05:56:46;;;;;;;1.90;1.80;;;21.20;44.20;;;;;;5033254;28;20444;-87
2022/08/08 05:59:18;;;;;;;2.57;1.93;;;21.20;43.40;;;;;;5060721;28;21288;-83
2022/08/08 06:01:54;;;;;;;3.90;3.50;;;21.20;43.00;;;;;;5054429;28;20527;-86
2022/08/08 06:04:24;;;;;;;4.03;2.00;;;21.30;42.60;;;;;;5073129;28;20455;-85
2022/08/08 06:06:58;;;;;;;22.53;2.47;;;21.30;43.00;;;;;;5054842;28;20479;-87
2022/08/08 06:09:31;;;;;;;4.30;2.00;;;21.40;43.50;;;;;;5057778;28;20558;-88
2022/08/08 06:12:01;;;;;;;1.77;1.60;;;21.50;42.70;;;;;;5055964;28;20456;-86
2022/08/08 06:14:29;;;;;;;1.83;1.53;;;21.60;42.70;;;;;;5072746;28;20954;-87
2022/08/08 06:16:59;;;;;;;6.73;1.80;;;21.60;42.10;;;;;;5083320;28;20493;-86
2022/08/08 06:19:50;;;;;;;4.47;1.67;;;21.70;41.90;;;;;;5084024;28;20448;-86
2022/08/08 06:22:17;;;;;;;2.73;1.63;;;21.70;41.50;;;;;;5060619;28;20459;-86
2022/08/08 06:24:50;;;;;;;2.40;1.63;;;21.80;41.20;;;;;;5078022;28;20463;-85
2022/08/08 06:27:21;;;;;;;2.00;1.50;;;21.90;41.20;;;;;;5081788;28;20472;-85
2022/08/08 06:29:56;;;;;;;6.60;1.93;;;22.00;40.80;;;;;;5065401;28;21117;-87
2022/08/08 06:32:29;;;;;;;2.70;1.27;;;22.10;41.00;;;;;;5066172;28;20443;-85
2022/08/08 06:35:00;;;;;;;3.73;2.07;;;22.10;40.10;;;;;;5074138;28;20462;-86
2022/08/08 06:37:31;;;;;;;5.40;1.87;;;22.20;40.60;;;;;;5074188;28;20474;-86
2022/08/08 06:43:01;;;;;;;3.90;1.90;;;22.40;39.00;;;;;;5071980;28;20458;-86
2022/08/08 06:45:33;;;;;;;4.03;1.97;;;22.60;38.80;;;;;;5063764;28;21208;-87
2022/08/08 06:48:01;;;;;;;8.87;2.37;;;22.70;38.30;;;;;;5075912;28;20471;-87
2022/08/08 06:50:55;;;;;;;2.40;1.80;;;22.80;37.80;;;;;;5077291;28;20933;-86
2022/08/08 06:53:24;;;;;;;2.60;1.70;;;22.70;37.90;;;;;;5057418;28;20451;-86
2022/08/08 06:55:58;;;;;;;7.20;1.90;;;22.90;38.20;;;;;;5073652;28;20978;-87
2022/08/08 06:58:25;;;;;;;6.40;1.80;;;23.20;37.40;;;;;;5056074;28;20999;-88
2022/08/08 07:00:53;;;;;;;7.70;1.90;;;23.40;37.40;;;;;;5057609;28;21295;-87
2022/08/08 07:03:32;;;;;;;4.13;1.73;;;23.60;37.30;;;;;;5070281;28;20478;-87
2022/08/08 07:06:04;;;;;;;2.90;1.47;;;23.80;35.70;;;;;;5079865;28;21009;-87
2022/08/08 07:08:37;;;;;;;3.90;1.63;;;24.00;35.10;;;;;;5082176;28;20993;-86
2022/08/08 07:11:07;;;;;;;2.00;1.80;;;24.20;36.00;;;;;;5080997;28;20509;-85
2022/08/08 07:13:43;;;;;;;7.40;1.73;;;24.30;36.10;;;;;;5086112;28;20534;-84
2022/08/08 07:16:39;;;;;;;5.30;2.03;;;24.40;35.70;;;;;;5083605;28;20478;-86
2022/08/08 07:19:16;;;;;;;3.00;1.53;;;24.50;35.30;;;;;;5045583;28;20447;-86
2022/08/08 07:21:54;;;;;;;2.13;1.40;;;24.70;35.80;;;;;;5063604;28;20447;-86
2022/08/08 07:24:26;;;;;;;8.27;2.00;;;24.90;35.10;;;;;;5059712;28;20460;-87
2022/08/08 07:27:06;;;;;;;3.00;1.60;;;25.00;33.60;;;;;;5050384;28;20555;-86
2022/08/08 07:29:36;;;;;;;2.70;1.50;;;25.00;34.00;;;;;;5050023;28;21041;-87
2022/08/08 07:32:31;;;;;;;4.23;1.90;;;25.00;32.80;;;;;;5066531;28;20966;-88
2022/08/08 07:35:00;;;;;;;6.70;1.57;;;25.20;33.00;;;;;;5058852;28;21029;-86
2022/08/08 07:37:31;;;;;;;1.53;1.30;;;25.30;33.40;;;;;;5050113;28;20475;-86
2022/08/08 07:39:58;;;;;;;3.33;1.30;;;25.30;33.20;;;;;;5047966;28;20859;-87
2022/08/08 07:42:29;;;;;;;2.30;1.60;;;25.50;32.90;;;;;;5059279;28;20554;-87
2022/08/08 07:44:57;;;;;;;1.77;1.43;;;25.60;32.70;;;;;;5074022;28;20454;-86
2022/08/08 07:47:24;;;;;;;4.07;1.40;;;25.60;32.00;;;;;;5061355;28;20848;-85
2022/08/08 07:49:51;;;;;;;4.33;1.53;;;25.50;32.80;;;;;;5075951;28;20446;-85
2022/08/08 07:52:20;;;;;;;1.40;1.30;;;25.60;32.60;;;;;;5053880;28;20507;-85
2022/08/08 07:54:58;;;;;;;1.57;1.40;;;25.70;32.70;;;;;;5066230;28;20950;-87
2022/08/08 07:57:36;;;;;;;1.40;1.30;;;26.00;32.30;;;;;;5043633;28;20475;-85
2022/08/08 08:00:09;;;;;;;4.10;1.40;;;26.10;31.70;;;;;;5059612;28;20451;-87
2022/08/08 08:02:52;;;;;;;3.20;1.53;;;26.20;31.40;;;;;;5050810;28;20842;-88
2022/08/08 08:05:23;;;;;;;3.33;1.40;;;26.30;30.70;;;;;;5063606;28;21001;-88
2022/08/08 08:07:55;;;;;;;3.03;1.50;;;26.30;30.50;;;;;;5045708;28;20478;-87
2022/08/08 08:10:29;;;;;;;1.40;1.30;;;26.30;30.40;;;;;;5054251;28;20447;-87
2022/08/08 08:13:20;;;;;;;5.70;1.60;;;26.40;30.60;;;;;;5048367;28;20832;-86
2022/08/08 08:15:51;;;;;;;4.53;1.43;;;26.50;30.40;;;;;;5049357;28;20953;-87
2022/08/08 08:18:22;;;;;;;1.60;1.50;;;26.70;30.30;;;;;;5057165;28;20479;-85
2022/08/08 08:20:51;;;;;;;1.63;1.53;;;26.80;30.70;;;;;;5058430;28;20462;-85
2022/08/08 08:23:19;;;;;;;2.70;1.53;;;27.00;29.70;;;;;;5059183;28;20499;-86
2022/08/08 08:25:46;;;;;;;1.77;1.50;;;27.00;30.10;;;;;;5061283;28;20460;-88
2022/08/08 08:28:18;;;;;;;2.20;1.50;;;27.20;29.90;;;;;;5067836;28;21030;-88
2022/08/08 08:30:45;;;;;;;2.70;1.40;;;27.40;30.20;;;;;;5050748;28;20443;-89
2022/08/08 08:33:13;;;;;;;1.90;1.57;;;27.40;29.60;;;;;;5050256;28;20530;-86
2022/08/08 08:35:40;;;;;;;1.57;1.10;;;27.60;29.90;;;;;;5061774;28;20451;-86
2022/08/08 08:38:07;;;;;;;5.10;1.57;;;27.80;30.60;;;;;;5061169;28;20489;-86
2022/08/08 08:40:35;;;;;;;1.60;1.50;;;28.00;29.80;;;;;;5077003;28;20445;-87
2022/08/08 08:43:05;;;;;;;2.00;1.90;;;28.10;29.10;;;;;;5082813;28;20560;-86
2022/08/08 08:45:35;;;;;;;4.37;1.80;;;28.20;28.60;;;;;;5048904;28;20447;-87
2022/08/08 08:48:04;;;;;;;1.57;1.43;;;27.90;28.50;;;;;;5056938;28;20552;-85
2022/08/08 08:50:37;;;;;;;1.50;1.40;;;27.80;28.40;;;;;;5063042;28;20451;-87
2022/08/08 08:53:10;;;;;;;2.70;1.30;;;27.90;28.10;;;;;;5088739;28;20813;-86
2022/08/08 08:55:39;;;;;;;4.00;1.50;;;28.20;28.30;;;;;;5071842;28;20451;-86
2022/08/08 08:58:08;;;;;;;1.57;1.37;;;28.40;27.70;;;;;;5097429;28;20475;-87
2022/08/08 09:04:47;;;;;;;2.80;1.40;;;28.90;27.30;;;;;;5078129;28;20493;-89
2022/08/08 09:07:22;;;;;;;2.70;1.43;;;29.10;26.60;;;;;;5061364;28;20503;-87
2022/08/08 09:09:53;;;;;;;1.70;1.60;;;29.20;26.70;;;;;;5056871;28;20824;-86
2022/08/08 09:12:26;;;;;;;5.80;1.60;;;29.00;26.10;;;;;;5076418;28;20504;-87
2022/08/08 09:14:55;;;;;;;3.13;1.60;;;29.10;27.40;;;;;;5076087;28;21516;-87
2022/08/08 09:17:25;;;;;;;1.33;1.23;;;29.50;26.40;;;;;;5082944;28;20479;-86
2022/08/08 09:19:56;;;;;;;1.60;1.47;;;29.40;26.00;;;;;;5044468;28;20439;-85
2022/08/08 09:22:25;;;;;;;3.80;1.60;;;29.50;26.20;;;;;;5076670;28;20527;-87
2022/08/08 09:24:53;;;;;;;1.30;1.20;;;29.60;26.20;;;;;;5057431;28;20554;-87
2022/08/08 09:27:21;;;;;;;1.27;1.17;;;29.90;25.80;;;;;;5077291;28;20459;-87
2022/08/08 09:29:53;;;;;;;2.80;1.50;;;30.00;25.00;;;;;;5060519;28;20513;-86
2022/08/08 09:32:34;;;;;;;2.80;1.50;;;30.30;24.40;;;;;;5057042;28;20546;-87
2022/08/08 09:35:05;;;;;;;1.50;1.20;;;30.30;24.10;;;;;;5070788;28;20763;-87
2022/08/08 09:37:42;;;;;;;2.50;1.30;;;30.50;24.60;;;;;;5056804;28;20480;-88
2022/08/08 09:40:11;;;;;;;1.53;1.43;;;30.70;24.30;;;;;;5059741;28;20525;-85
2022/08/08 09:42:40;;;;;;;1.60;1.50;;;30.90;24.00;;;;;;5082926;28;20786;-88
2022/08/08 09:45:09;;;;;;;1.40;1.30;;;31.00;23.20;;;;;;5087708;28;20447;-88
2022/08/08 09:47:39;;;;;;;1.30;1.20;;;30.90;22.90;;;;;;5078699;28;20474;-88
2022/08/08 09:50:10;;;;;;;1.40;1.30;;;31.10;23.40;;;;;;5096148;28;20458;-85
2022/08/08 09:52:41;;;;;;;2.47;2.27;;;31.40;23.00;;;;;;5078587;28;20456;-86
2022/08/08 09:55:08;;;;;;;1.93;1.60;;;31.50;23.20;;;;;;5078363;28;20814;-86
2022/08/08 10:02:35;;;;;;;1.80;1.40;;;31.90;23.30;;;;;;5074638;28;20434;-88
2022/08/08 10:05:15;;;;;;;1.20;1.10;;;32.20;22.70;;;;;;5076394;28;20470;-89
2022/08/08 10:07:54;;;;;;;1.33;1.20;;;32.20;21.90;;;;;;5100457;28;20976;-87
2022/08/08 10:10:25;;;;;;;1.57;1.47;;;32.50;22.40;;;;;;5103679;28;20472;-87
2022/08/08 10:12:52;;;;;;;1.87;1.50;;;32.80;21.50;;;;;;5093884;28;20449;-87
2022/08/08 10:15:20;;;;;;;1.60;1.50;;;33.10;21.20;;;;;;5075268;28;20447;-88
2022/08/08 10:17:48;;;;;;;1.50;1.40;;;33.30;20.80;;;;;;5099619;28;21512;-87
2022/08/08 10:20:17;;;;;;;1.87;1.30;;;33.30;21.00;;;;;;5095654;28;20953;-86
2022/08/08 10:22:57;;;;;;;1.40;1.30;;;33.20;20.60;;;;;;5094191;28;20444;-86
2022/08/08 10:25:25;;;;;;;1.37;1.27;;;33.20;21.30;;;;;;5077285;28;20431;-86
2022/08/08 10:28:05;;;;;;;1.50;1.40;;;33.40;21.20;;;;;;5060951;28;20482;-87
2022/08/08 10:30:33;;;;;;;7.20;1.30;;;33.60;21.20;;;;;;5094012;28;21277;-89
2022/08/08 10:33:00;;;;;;;3.57;1.30;;;33.60;21.10;;;;;;5064602;28;20457;-86
2022/08/08 10:35:32;;;;;;;1.47;1.20;;;33.80;21.10;;;;;;5074290;28;20451;-88
2022/08/08 10:38:01;;;;;;;2.07;1.30;;;33.90;20.80;;;;;;5092767;28;20554;-86
2022/08/08 10:40:29;;;;;;;3.70;1.30;;;33.60;20.30;;;;;;5093226;28;21911;-86
2022/08/08 10:42:59;;;;;;;2.13;1.30;;;33.60;20.40;;;;;;5060421;28;20443;-86
2022/08/08 10:45:26;;;;;;;1.50;1.40;;;33.70;20.90;;;;;;5095886;28;20493;-86
2022/08/08 10:47:55;;;;;;;4.93;1.30;;;33.70;20.70;;;;;;5081253;28;20487;-86
2022/08/08 10:50:23;;;;;;;2.30;1.40;;;33.80;20.00;;;;;;5094896;28;20460;-87
2022/08/08 10:52:59;;;;;;;1.70;1.60;;;34.10;20.10;;;;;;5096983;28;20506;-86
2022/08/08 10:55:26;;;;;;;1.47;1.37;;;33.60;19.80;;;;;;5058304;28;20439;-88
2022/08/08 10:57:53;;;;;;;1.40;1.30;;;32.90;20.30;;;;;;5062468;28;20464;-87
2022/08/08 11:00:22;;;;;;;3.03;1.30;;;33.30;21.30;;;;;;5082043;28;20977;-89
2022/08/08 11:02:50;;;;;;;1.40;1.23;;;33.80;21.30;;;;;;5098059;28;20479;-87
2022/08/08 11:05:17;;;;;;;2.17;1.27;;;34.20;20.50;;;;;;5067644;28;20516;-85
2022/08/08 11:07:49;;;;;;;1.80;1.57;;;33.90;19.80;;;;;;5074635;28;20462;-87
2022/08/08 11:10:19;;;;;;;1.50;1.40;;;33.40;20.20;;;;;;5095560;28;20448;-85
2022/08/08 11:12:47;;;;;;;1.67;1.20;;;33.60;20.50;;;;;;5097523;28;20521;-86
2022/08/08 11:15:15;;;;;;;2.43;1.33;;;33.50;20.90;;;;;;5063522;28;20465;-86
2022/08/08 11:17:43;;;;;;;1.50;1.40;;;33.90;20.40;;;;;;5098949;28;20482;-86
2022/08/08 11:20:16;;;;;;;5.13;1.30;;;33.90;19.70;;;;;;5094186;28;21047;-86
2022/08/08 11:22:43;;;;;;;1.37;1.27;;;33.80;20.20;;;;;;5094186;28;20439;-85
2022/08/08 11:25:11;;;;;;;6.27;1.83;;;33.80;19.40;;;;;;5069887;28;20478;-85
2022/08/08 11:27:42;;;;;;;1.43;1.33;;;33.90;20.30;;;;;;5083754;28;20450;-87
2022/08/08 11:30:34;;;;;;;1.43;1.33;;;34.20;20.20;;;;;;5098570;28;20442;-86
2022/08/08 11:33:03;;;;;;;1.20;1.10;;;34.30;19.60;;;;;;5079861;28;20450;-86
2022/08/08 11:35:31;;;;;;;5.33;1.50;;;34.40;20.20;;;;;;5096309;28;20435;-89
2022/08/08 11:37:58;;;;;;;1.87;1.70;;;34.70;20.20;;;;;;5095842;28;20459;-88
2022/08/08 11:40:25;;;;;;;2.33;1.40;;;34.70;19.60;;;;;;5096259;28;20459;-86
2022/08/08 11:42:54;;;;;;;1.20;1.10;;;34.70;19.50;;;;;;5099097;28;20456;-87
2022/08/08 11:45:22;;;;;;;1.50;1.40;;;34.70;19.10;;;;;;5093376;28;21019;-86
2022/08/08 11:47:51;;;;;;;3.03;1.50;;;34.70;19.30;;;;;;5077226;28;20458;-86
2022/08/08 11:50:19;;;;;;;2.90;1.40;;;34.70;19.40;;;;;;5095127;28;20452;-86
2022/08/08 11:52:47;;;;;;;1.50;1.40;;;34.70;19.30;;;;;;5098368;28;20443;-85
2022/08/08 11:55:18;;;;;;;2.83;1.37;;;34.70;19.40;;;;;;5077208;28;20789;-87
2022/08/08 11:57:46;;;;;;;5.00;1.40;;;34.60;18.40;;;;;;5080462;28;20479;-86
2022/08/08 12:00:44;;;;;;;4.67;1.33;;;34.30;19.40;;;;;;5094437;28;20463;-87
2022/08/08 12:03:16;;;;;;;1.60;1.50;;;34.40;19.50;;;;;;5058021;28;20819;-86
2022/08/08 12:05:44;;;;;;;1.13;1.00;;;34.80;19.80;;;;;;5090519;28;21029;-87
2022/08/08 12:08:37;;;;;;;1.63;1.10;;;35.00;19.00;;;;;;5057199;28;20830;-89
2022/08/08 12:11:09;;;;;;;1.20;1.00;;;35.00;19.20;;;;;;5091475;28;20548;-87
2022/08/08 12:13:36;;;;;;;1.20;1.10;;;34.90;18.20;;;;;;5067847;28;20439;-87
2022/08/08 12:16:09;;;;;;;2.60;1.30;;;34.20;19.40;;;;;;5096618;28;20456;-86
2022/08/08 12:18:47;;;;;;;1.40;1.30;;;34.20;19.10;;;;;;5061046;28;21000;-88
2022/08/08 12:21:23;;;;;;;1.60;1.50;;;34.70;18.80;;;;;;5076936;28;20487;-88
2022/08/08 12:23:50;;;;;;;1.83;1.20;;;34.90;18.90;;;;;;5079773;28;20466;-86
2022/08/08 12:26:20;;;;;;;1.50;1.40;;;34.80;18.80;;;;;;5097858;28;20444;-87
2022/08/08 12:28:57;;;;;;;2.03;1.70;;;35.00;19.30;;;;;;5097394;28;20454;-86
2022/08/08 12:31:34;;;;;;;1.27;1.17;;;35.20;18.60;;;;;;5095035;28;20447;-86
2022/08/08 12:34:01;;;;;;;2.40;1.27;;;35.30;18.60;;;;;;5076146;28;21242;-86
2022/08/08 12:36:39;;;;;;;2.07;1.37;;;35.10;18.30;;;;;;5083526;28;20541;-86
2022/08/08 12:39:07;;;;;;;1.20;1.10;;;34.80;19.00;;;;;;5095831;28;20454;-85
2022/08/08 12:41:35;;;;;;;2.07;1.30;;;34.80;19.00;;;;;;5065213;28;20681;-86
2022/08/08 12:44:07;;;;;;;1.30;1.10;;;35.00;18.60;;;;;;5095044;28;20760;-87
2022/08/08 12:46:36;;;;;;;4.40;1.30;;;35.10;18.90;;;;;;5096232;28;20447;-88
2022/08/08 12:49:04;;;;;;;2.10;1.90;;;35.10;18.30;;;;;;5097428;28;20507;-86
2022/08/08 12:51:42;;;;;;;1.30;1.20;;;35.00;18.60;;;;;;5091595;28;20923;-88
2022/08/08 12:54:19;;;;;;;2.90;1.50;;;35.20;18.60;;;;;;5074790;28;20431;-87
2022/08/08 12:56:46;;;;;;;1.40;1.30;;;35.30;18.60;;;;;;5095033;28;20447;-87
2022/08/08 12:59:15;;;;;;;3.67;1.30;;;35.70;18.60;;;;;;5092473;28;20849;-87
2022/08/08 13:01:51;;;;;;;4.43;1.27;;;36.00;18.50;;;;;;5082695;28;20452;-90
2022/08/08 13:04:19;;;;;;;4.70;1.57;;;36.20;18.30;;;;;;5075753;28;20460;-86
2022/08/08 13:07:00;;;;;;;1.53;1.30;;;36.40;18.60;;;;;;5063066;28;20449;-86
2022/08/08 13:09:36;;;;;;;2.33;1.43;;;36.30;17.90;;;;;;5078898;28;20504;-87
2022/08/08 13:12:12;;;;;;;5.03;1.30;;;36.20;18.70;;;;;;5080026;28;20958;-86
2022/08/08 13:14:42;;;;;;;1.60;1.30;;;36.30;18.00;;;;;;5085301;28;20461;-89
2022/08/08 13:17:11;;;;;;;1.40;1.30;;;36.30;17.60;;;;;;5101427;28;20469;-88
2022/08/08 13:19:38;;;;;;;1.10;1.00;;;36.50;17.10;;;;;;5101983;28;20438;-87
2022/08/08 13:22:07;;;;;;;1.30;1.20;;;36.70;17.50;;;;;;5077228;28;20525;-87
2022/08/08 13:24:37;;;;;;;1.33;1.23;;;36.60;17.30;;;;;;5070394;28;20460;-87
2022/08/08 13:27:06;;;;;;;1.20;1.10;;;36.80;17.30;;;;;;5079298;28;20492;-86
2022/08/08 13:29:34;;;;;;;1.50;1.40;;;36.60;16.50;;;;;;5086846;28;20965;-86
2022/08/08 13:32:03;;;;;;;9.70;1.57;;;36.10;17.30;;;;;;5064743;28;20435;-86
2022/08/08 13:34:37;;;;;;;1.10;1.00;;;35.90;17.90;;;;;;5049047;28;20443;-87
2022/08/08 13:37:07;;;;;;;3.40;1.23;;;36.00;17.40;;;;;;5081423;28;20475;-87
2022/08/08 13:39:34;;;;;;;1.80;1.43;;;35.90;17.10;;;;;;5085649;28;20475;-85
2022/08/08 13:42:02;;;;;;;1.40;1.30;;;35.60;17.00;;;;;;5087700;28;20514;-86
2022/08/08 13:44:30;;;;;;;1.70;1.37;;;35.60;17.10;;;;;;5090793;28;20485;-86
2022/08/08 13:46:58;;;;;;;1.67;1.30;;;35.80;17.30;;;;;;5101877;28;20448;-86
2022/08/08 13:49:29;;;;;;;3.73;1.50;;;35.70;17.50;;;;;;5099715;28;20439;-84
2022/08/08 13:51:59;;;;;;;1.30;1.10;;;35.60;17.70;;;;;;5102628;28;20450;-86
2022/08/08 13:54:28;;;;;;;1.20;1.10;;;35.90;17.20;;;;;;5095825;28;21020;-86
2022/08/08 13:57:07;;;;;;;4.50;1.40;;;35.70;17.40;;;;;;5081767;28;20447;-86
2022/08/08 13:59:36;;;;;;;1.93;1.37;;;35.90;17.80;;;;;;5089748;28;20450;-85
2022/08/08 14:02:12;;;;;;;1.30;1.20;;;36.00;17.40;;;;;;5081366;28;20440;-87
2022/08/08 14:04:38;;;;;;;1.77;1.23;;;36.00;17.00;;;;;;5097321;28;20539;-86
2022/08/08 14:07:09;;;;;;;1.30;1.20;;;36.10;18.00;;;;;;5081792;28;20489;-87
2022/08/08 14:09:39;;;;;;;1.30;1.20;;;36.40;17.60;;;;;;5103479;28;20998;-87
2022/08/08 14:12:07;;;;;;;1.40;1.30;;;36.60;17.40;;;;;;5082239;28;20525;-86
2022/08/08 14:14:36;;;;;;;1.50;1.40;;;36.50;17.10;;;;;;5100987;28;20447;-86
2022/08/08 14:17:04;;;;;;;1.50;1.40;;;36.30;16.90;;;;;;5091451;28;20479;-86
2022/08/08 14:19:37;;;;;;;1.30;1.20;;;36.00;17.60;;;;;;5097716;28;20448;-85
2022/08/08 14:22:15;;;;;;;2.23;1.57;;;36.10;17.30;;;;;;5084000;28;20500;-86
2022/08/08 14:24:48;;;;;;;2.23;1.40;;;36.00;17.70;;;;;;5099109;28;20467;-88
2022/08/08 14:27:19;;;;;;;5.43;1.30;;;36.30;17.30;;;;;;5101416;28;20954;-85